Time;durP1;ratioP1;P1;durP2;ratioP2;P2;SDS_P1;SDS_P2;PMS_P1;PMS_P2;Temp;Humidity;BMP_temperature;BMP_pressure;BME280_temperature;BME280_humidity;BME280_pressure;Samples;Min_cycle;Max_cycle;Signal;HPM_P1;HPM_P2
2022/10/11 00:00:31;;;;;;;6.00;1.50;;;13.00;99.90;;;;;;5122730;28;20474;-37
2022/10/11 00:02:58;;;;;;;3.57;1.60;;;13.00;99.90;;;;;;5123320;28;20452;-36
2022/10/11 00:05:25;;;;;;;2.30;1.53;;;13.00;99.90;;;;;;5123944;28;20455;-37
2022/10/11 00:07:52;;;;;;;1.97;1.27;;;12.90;99.90;;;;;;5122494;28;20804;-38
2022/10/11 00:10:20;;;;;;;5.43;1.40;;;12.90;99.90;;;;;;5122085;28;20796;-38
2022/10/11 00:12:51;;;;;;;3.37;1.30;;;12.80;99.90;;;;;;5113734;28;20457;-38
2022/10/11 00:15:21;;;;;;;5.83;1.40;;;12.80;99.90;;;;;;5104594;28;20758;-37
2022/10/11 00:17:47;;;;;;;2.03;1.43;;;12.80;99.90;;;;;;5105609;28;20449;-39
2022/10/11 00:20:14;;;;;;;3.43;1.37;;;12.70;99.90;;;;;;5105089;28;20472;-38
2022/10/11 00:22:42;;;;;;;1.97;1.20;;;12.70;99.90;;;;;;5104550;28;20449;-38
2022/10/11 00:25:10;;;;;;;1.90;1.60;;;12.60;99.90;;;;;;5105525;28;20464;-39
2022/10/11 00:27:37;;;;;;;4.80;1.30;;;12.60;99.90;;;;;;5106302;28;20469;-37
2022/10/11 00:30:09;;;;;;;3.97;1.33;;;12.50;99.90;;;;;;5106478;28;20437;-37
2022/10/11 00:32:37;;;;;;;2.00;1.70;;;12.40;99.90;;;;;;5106235;28;20480;-39
2022/10/11 00:35:06;;;;;;;10.10;2.03;;;12.40;99.90;;;;;;5107176;28;20445;-38
2022/10/11 00:37:33;;;;;;;8.03;1.37;;;12.30;99.90;;;;;;5106256;28;20457;-36
2022/10/11 00:40:01;;;;;;;2.63;1.20;;;12.30;99.90;;;;;;5123858;28;20440;-37
2022/10/11 00:42:28;;;;;;;4.53;2.03;;;12.30;99.90;;;;;;5127075;28;20528;-37
2022/10/11 00:45:35;;;;;;;4.70;1.57;;;12.30;99.90;;;;;;5127001;28;20540;-38
2022/10/11 00:48:08;;;;;;;2.70;1.30;;;12.30;99.90;;;;;;5126807;28;20476;-38
2022/10/11 00:50:36;;;;;;;2.67;1.20;;;12.30;99.90;;;;;;5127316;28;20475;-39
2022/10/11 00:53:06;;;;;;;6.10;1.33;;;12.20;99.90;;;;;;5127465;28;20440;-37
2022/10/11 00:55:37;;;;;;;4.03;1.40;;;12.30;99.90;;;;;;5127432;28;20464;-38
2022/10/11 00:58:04;;;;;;;2.17;1.00;;;12.20;99.90;;;;;;5128703;28;20513;-38
2022/10/11 01:00:31;;;;;;;1.77;1.10;;;12.20;99.90;;;;;;5127799;28;20448;-37
2022/10/11 01:02:59;;;;;;;1.87;1.27;;;12.10;99.90;;;;;;5127612;28;20468;-36
2022/10/11 01:05:27;;;;;;;3.50;1.53;;;12.00;99.90;;;;;;5127195;28;20437;-39
2022/10/11 01:07:54;;;;;;;3.63;1.70;;;12.00;99.90;;;;;;5127446;28;20483;-39
2022/10/11 01:10:22;;;;;;;3.10;1.40;;;12.00;99.90;;;;;;5127917;28;20429;-36
2022/10/11 01:12:59;;;;;;;5.53;1.27;;;11.90;99.90;;;;;;5127384;28;20453;-35
2022/10/11 01:15:33;;;;;;;8.33;1.63;;;11.90;99.90;;;;;;5126693;28;20468;-38
2022/10/11 01:18:05;;;;;;;4.67;1.43;;;11.90;99.90;;;;;;5126889;28;20447;-36
2022/10/11 01:20:51;;;;;;;4.70;1.10;;;11.90;99.90;;;;;;5126295;28;20527;-37
2022/10/11 01:23:59;;;;;;;2.67;1.50;;;11.80;99.90;;;;;;5127322;28;20428;-38
2022/10/11 01:26:40;;;;;;;11.53;1.53;;;11.80;99.90;;;;;;5126444;28;20532;-37
2022/10/11 01:29:17;;;;;;;8.67;1.70;;;11.70;99.90;;;;;;5127979;28;20459;-37
2022/10/11 01:31:51;;;;;;;3.60;1.10;;;11.60;99.90;;;;;;5127309;28;20432;-37
2022/10/11 01:34:25;;;;;;;2.13;1.43;;;11.60;99.90;;;;;;5127040;28;20469;-39
2022/10/11 01:36:58;;;;;;;4.53;0.90;;;11.60;99.90;;;;;;5127275;28;20428;-38
2022/10/11 01:39:31;;;;;;;5.73;1.80;;;11.60;99.90;;;;;;5128103;28;20468;-37
2022/10/11 01:42:02;;;;;;;2.70;0.97;;;11.60;99.90;;;;;;5128236;28;20425;-37
2022/10/11 01:44:36;;;;;;;6.73;2.53;;;11.50;99.90;;;;;;5127299;28;20455;-37
2022/10/11 01:47:06;;;;;;;4.03;1.50;;;11.50;99.90;;;;;;5127224;28;20537;-36
2022/10/11 01:49:33;;;;;;;6.30;1.90;;;11.50;99.90;;;;;;5128070;28;20445;-38
2022/10/11 01:52:04;;;;;;;10.53;1.37;;;11.50;99.90;;;;;;5126540;28;20479;-39
2022/10/11 01:54:49;;;;;;;1.90;1.30;;;12.90;99.90;;;;;;5127401;28;20425;-38
2022/10/11 01:57:51;;;;;;;2.53;1.43;;;11.40;99.90;;;;;;5127724;27;20460;-38
2022/10/11 02:00:20;;;;;;;4.47;1.50;;;11.40;99.90;;;;;;5127689;28;20455;-37
2022/10/11 02:03:05;;;;;;;2.77;1.10;;;11.30;99.90;;;;;;5127087;28;20952;-37
2022/10/11 02:05:39;;;;;;;7.00;1.50;;;11.20;99.90;;;;;;5127141;28;20477;-38
2022/10/11 02:08:13;;;;;;;4.57;1.20;;;11.30;99.90;;;;;;5127155;28;20487;-39
2022/10/11 02:10:48;;;;;;;2.90;1.23;;;11.20;99.90;;;;;;5110513;28;20453;-38
2022/10/11 02:13:22;;;;;;;5.57;1.50;;;11.20;99.90;;;;;;5106883;28;20456;-37
2022/10/11 02:15:50;;;;;;;4.03;1.20;;;11.20;99.90;;;;;;5107558;28;20489;-38
2022/10/11 02:18:23;;;;;;;3.43;1.33;;;11.20;99.90;;;;;;5107539;28;20748;-37
2022/10/11 02:20:51;;;;;;;2.70;1.53;;;11.10;99.90;;;;;;5106910;28;20469;-37
2022/10/11 02:23:22;;;;;;;3.47;1.60;;;11.10;99.90;;;;;;5106336;28;20445;-39
2022/10/11 02:25:50;;;;;;;6.20;1.20;;;11.10;99.90;;;;;;5105894;28;20723;-37
2022/10/11 02:28:21;;;;;;;9.27;2.07;;;11.10;99.90;;;;;;5106800;28;20485;-38
2022/10/11 02:30:51;;;;;;;10.03;1.87;;;11.10;99.90;;;;;;5105994;28;20434;-38
2022/10/11 02:33:24;;;;;;;9.93;1.57;;;11.10;99.90;;;;;;5106408;28;20476;-38
2022/10/11 02:35:58;;;;;;;4.23;2.00;;;10.90;99.90;;;;;;5107025;28;20447;-39
2022/10/11 02:38:27;;;;;;;8.10;1.40;;;10.90;99.90;;;;;;5106522;28;20430;-38
2022/10/11 02:41:00;;;;;;;4.63;1.37;;;10.90;99.90;;;;;;5107602;28;20446;-37
2022/10/11 02:43:35;;;;;;;3.50;1.00;;;10.80;99.90;;;;;;5106935;28;20429;-37
2022/10/11 02:46:06;;;;;;;7.70;1.63;;;10.80;99.90;;;;;;5107507;28;20565;-36
2022/10/11 02:48:35;;;;;;;4.63;1.53;;;10.80;99.90;;;;;;5106565;28;20457;-37
2022/10/11 02:51:03;;;;;;;2.43;0.90;;;10.80;99.90;;;;;;5106813;28;20577;-39
2022/10/11 02:53:32;;;;;;;6.17;1.60;;;10.70;99.90;;;;;;5107551;28;20536;-40
2022/10/11 02:55:59;;;;;;;5.13;1.10;;;10.70;99.90;;;;;;5107090;28;20445;-36
2022/10/11 02:58:25;;;;;;;4.90;1.60;;;10.70;99.90;;;;;;5106878;28;20401;-37
2022/10/11 03:00:52;;;;;;;3.80;1.00;;;10.70;99.90;;;;;;5106604;28;20437;-38
2022/10/11 03:03:20;;;;;;;4.40;1.57;;;10.70;99.90;;;;;;5107417;28;20458;-38
2022/10/11 03:05:48;;;;;;;3.67;1.00;;;10.60;99.90;;;;;;5106221;28;20500;-36
2022/10/11 03:08:16;;;;;;;1.83;0.87;;;10.60;99.90;;;;;;5106244;28;20485;-36
2022/10/11 03:10:44;;;;;;;5.77;1.57;;;10.60;99.90;;;;;;5107522;28;20468;-36
2022/10/11 03:13:10;;;;;;;3.90;1.33;;;10.60;99.90;;;;;;5108043;28;20455;-36
2022/10/11 03:15:37;;;;;;;5.93;1.40;;;10.60;99.90;;;;;;5117850;22;20500;-41
2022/10/11 03:18:04;;;;;;;4.43;1.30;;;10.60;99.90;;;;;;5082886;28;20442;-41
2022/10/11 03:20:31;;;;;;;3.33;1.77;;;10.60;99.90;;;;;;5079715;28;20483;-39
2022/10/11 03:22:59;;;;;;;1.60;1.10;;;10.60;99.90;;;;;;5063679;28;20439;-42
2022/10/11 03:25:26;;;;;;;3.00;1.60;;;10.50;99.90;;;;;;5063470;28;20471;-40
2022/10/11 03:27:53;;;;;;;7.00;1.23;;;10.50;99.90;;;;;;5063237;28;20486;-39
2022/10/11 03:30:20;;;;;;;10.93;1.37;;;10.50;99.90;;;;;;5064090;28;20443;-40
2022/10/11 03:32:46;;;;;;;3.10;1.13;;;10.50;99.90;;;;;;5063175;28;20467;-41
2022/10/11 03:35:13;;;;;;;6.97;1.93;;;10.40;99.90;;;;;;5064544;28;20454;-40
2022/10/11 03:37:40;;;;;;;5.70;1.23;;;10.40;99.90;;;;;;5063672;28;20467;-41
2022/10/11 03:40:10;;;;;;;3.07;1.87;;;10.40;99.90;;;;;;5062834;28;20428;-39
2022/10/11 03:42:37;;;;;;;5.53;1.10;;;10.40;99.90;;;;;;5062633;28;20526;-42
2022/10/11 03:45:07;;;;;;;3.00;1.93;;;10.30;99.90;;;;;;5066745;28;20456;-41
2022/10/11 03:47:34;;;;;;;5.87;1.93;;;10.40;99.90;;;;;;5064242;28;20963;-39
2022/10/11 03:50:00;;;;;;;3.37;1.37;;;10.40;99.90;;;;;;5064670;28;20485;-42
2022/10/11 03:52:27;;;;;;;3.80;1.40;;;10.30;99.90;;;;;;5067091;28;20928;-39
2022/10/11 03:54:54;;;;;;;3.73;1.20;;;10.20;99.90;;;;;;5066914;28;20459;-40
2022/10/11 03:57:22;;;;;;;2.23;1.47;;;10.20;99.90;;;;;;5067853;28;20748;-41
2022/10/11 03:59:49;;;;;;;5.47;1.90;;;10.20;99.90;;;;;;5066283;28;20448;-41
2022/10/11 04:02:16;;;;;;;3.60;1.63;;;10.20;99.90;;;;;;5065754;28;20478;-40
2022/10/11 04:04:43;;;;;;;4.20;1.33;;;10.20;99.90;;;;;;5066023;28;20519;-40
2022/10/11 04:07:10;;;;;;;4.90;1.30;;;10.20;99.90;;;;;;5067215;28;20542;-40
2022/10/11 04:09:36;;;;;;;7.40;1.30;;;10.20;99.90;;;;;;5067635;28;20494;-40
2022/10/11 04:12:04;;;;;;;5.67;2.07;;;10.10;99.90;;;;;;5067497;28;20451;-40
2022/10/11 04:14:32;;;;;;;3.93;1.80;;;10.20;99.90;;;;;;5067072;28;20475;-43
2022/10/11 04:16:59;;;;;;;3.47;1.63;;;10.20;99.90;;;;;;5075067;28;20962;-41
2022/10/11 04:19:25;;;;;;;6.30;1.70;;;10.20;99.90;;;;;;5087260;28;20434;-40
2022/10/11 04:21:52;;;;;;;1.47;1.20;;;10.20;99.90;;;;;;5087272;28;20470;-42
2022/10/11 04:24:19;;;;;;;2.80;1.77;;;10.20;99.90;;;;;;5087813;28;20438;-42
2022/10/11 04:26:46;;;;;;;11.63;2.13;;;10.20;99.90;;;;;;5087009;28;20461;-41
2022/10/11 04:29:13;;;;;;;9.43;2.00;;;10.10;99.90;;;;;;5086827;28;20978;-40
2022/10/11 04:31:41;;;;;;;5.57;2.13;;;10.10;99.90;;;;;;5086002;28;20743;-42
2022/10/11 04:34:08;;;;;;;2.50;1.53;;;10.20;99.90;;;;;;5087085;28;20766;-42
2022/10/11 04:36:38;;;;;;;5.57;2.37;;;10.20;99.90;;;;;;5086781;28;20446;-40
2022/10/11 04:39:05;;;;;;;4.97;2.20;;;10.10;99.90;;;;;;5087290;28;20470;-41
2022/10/11 04:41:33;;;;;;;4.23;1.77;;;10.10;99.90;;;;;;5087398;28;20462;-41
2022/10/11 04:44:02;;;;;;;3.20;1.50;;;10.00;99.90;;;;;;5086620;28;20446;-41
2022/10/11 04:46:29;;;;;;;2.17;1.40;;;10.00;99.90;;;;;;5086843;28;20477;-39
2022/10/11 04:48:58;;;;;;;5.17;1.60;;;10.00;99.90;;;;;;5086986;28;20493;-43
2022/10/11 04:51:26;;;;;;;6.30;1.63;;;10.00;99.90;;;;;;5086799;28;20493;-39
2022/10/11 04:53:53;;;;;;;2.03;1.20;;;10.00;99.90;;;;;;5087376;28;20477;-41
2022/10/11 04:56:20;;;;;;;5.70;2.40;;;10.00;99.90;;;;;;5086566;28;20450;-40
2022/10/11 04:58:48;;;;;;;10.40;2.13;;;10.00;99.90;;;;;;5086769;28;20468;-41
2022/10/11 05:01:15;;;;;;;6.20;1.43;;;10.00;99.90;;;;;;5086495;28;20449;-39
2022/10/11 05:03:42;;;;;;;3.20;1.97;;;10.00;99.90;;;;;;5086612;28;20474;-43
2022/10/11 05:06:10;;;;;;;3.10;1.47;;;9.90;99.90;;;;;;5086198;28;20525;-41
2022/10/11 05:08:38;;;;;;;3.70;1.70;;;9.90;99.90;;;;;;5086301;28;20474;-39
2022/10/11 05:11:06;;;;;;;7.20;2.07;;;9.90;99.90;;;;;;5086390;28;20447;-40
2022/10/11 05:13:35;;;;;;;7.43;3.07;;;9.90;99.90;;;;;;5086837;28;20438;-41
2022/10/11 05:16:02;;;;;;;5.87;2.43;;;9.90;99.90;;;;;;5086596;28;20474;-42
2022/10/11 05:18:29;;;;;;;5.67;2.10;;;9.90;99.90;;;;;;5086791;28;20452;-39
2022/10/11 05:21:01;;;;;;;2.40;1.57;;;9.80;99.90;;;;;;5086814;28;20450;-42
2022/10/11 05:23:31;;;;;;;11.30;2.00;;;9.90;99.90;;;;;;5086554;28;20534;-39
2022/10/11 05:25:58;;;;;;;7.63;2.20;;;9.90;99.90;;;;;;5086258;28;20458;-43
2022/10/11 05:28:25;;;;;;;6.03;2.10;;;9.90;99.90;;;;;;5087561;28;20494;-39
2022/10/11 05:30:51;;;;;;;5.40;2.07;;;9.90;99.90;;;;;;5087041;28;20453;-40
2022/10/11 05:33:18;;;;;;;18.93;3.30;;;9.90;99.90;;;;;;5085900;28;20446;-40
2022/10/11 05:35:45;;;;;;;10.13;2.20;;;9.90;99.90;;;;;;5086212;28;20446;-40
2022/10/11 05:38:12;;;;;;;4.03;2.17;;;9.90;99.90;;;;;;5085820;28;20438;-44
2022/10/11 05:40:40;;;;;;;6.17;3.00;;;9.80;99.90;;;;;;5085062;28;20470;-42
2022/10/11 05:43:07;;;;;;;4.13;1.93;;;9.80;99.90;;;;;;5085211;28;20446;-40
2022/10/11 05:45:36;;;;;;;7.93;2.20;;;9.70;99.90;;;;;;5086950;28;20506;-39
2022/10/11 05:48:04;;;;;;;3.13;2.27;;;9.70;99.90;;;;;;5086762;28;20934;-41
2022/10/11 05:50:31;;;;;;;6.33;2.93;;;9.80;99.90;;;;;;5086364;28;20454;-41
2022/10/11 05:52:57;;;;;;;11.10;2.37;;;9.80;99.90;;;;;;5086077;28;20466;-42
2022/10/11 05:55:24;;;;;;;4.53;1.87;;;9.80;99.90;;;;;;5085832;28;20442;-41
2022/10/11 05:57:54;;;;;;;14.50;2.70;;;9.80;99.90;;;;;;5080563;28;20454;-41
2022/10/11 06:00:21;;;;;;;4.87;2.13;;;9.80;99.90;;;;;;5079831;28;20493;-41
2022/10/11 06:02:47;;;;;;;7.83;2.27;;;9.80;99.90;;;;;;5075866;28;20435;-40
2022/10/11 06:05:15;;;;;;;4.43;2.27;;;9.80;99.90;;;;;;5069373;28;20615;-40
2022/10/11 06:07:42;;;;;;;2.90;2.13;;;9.90;99.90;;;;;;5081052;28;20447;-40
2022/10/11 06:10:09;;;;;;;3.43;2.03;;;9.90;99.90;;;;;;5073346;28;20489;-40
2022/10/11 06:12:36;;;;;;;12.00;2.67;;;10.00;99.90;;;;;;5068072;28;20449;-39
2022/10/11 06:15:05;;;;;;;4.50;1.97;;;10.10;99.90;;;;;;5075795;28;20915;-41
2022/10/11 06:17:32;;;;;;;6.93;3.20;;;10.10;99.90;;;;;;5082704;28;20472;-38
2022/10/11 06:19:59;;;;;;;4.53;2.03;;;10.10;99.90;;;;;;5073482;28;20501;-40
2022/10/11 06:22:26;;;;;;;3.87;2.47;;;9.70;99.90;;;;;;5080593;28;20453;-41
2022/10/11 06:24:53;;;;;;;5.80;2.50;;;10.00;99.90;;;;;;5070736;28;20444;-39
2022/10/11 06:27:20;;;;;;;6.00;2.73;;;9.90;99.90;;;;;;5079382;28;20454;-40
2022/10/11 06:29:46;;;;;;;9.80;2.40;;;9.50;99.90;;;;;;5074520;28;20511;-40
2022/10/11 06:32:15;;;;;;;3.40;2.10;;;10.00;99.90;;;;;;5078579;28;20458;-41
2022/10/11 06:34:41;;;;;;;10.83;2.97;;;10.10;99.90;;;;;;5076615;28;20460;-39
2022/10/11 06:37:08;;;;;;;6.50;2.73;;;10.00;99.90;;;;;;5077154;28;20519;-39
2022/10/11 06:39:37;;;;;;;2.70;2.07;;;10.10;99.90;;;;;;5074652;28;20446;-38
2022/10/11 06:42:04;;;;;;;3.97;2.57;;;10.20;99.90;;;;;;5066280;28;20474;-39
2022/10/11 06:44:31;;;;;;;5.07;2.23;;;10.20;99.90;;;;;;5064647;28;20496;-38
2022/10/11 06:46:57;;;;;;;7.30;3.73;;;10.20;99.90;;;;;;5080391;28;20461;-42
2022/10/11 06:49:25;;;;;;;4.47;2.43;;;10.20;99.90;;;;;;5078045;28;20485;-42
2022/10/11 06:51:52;;;;;;;4.10;2.17;;;10.20;99.90;;;;;;5073396;28;20439;-40
2022/10/11 06:54:19;;;;;;;6.40;2.40;;;10.30;99.90;;;;;;5070663;28;20794;-39
2022/10/11 06:56:46;;;;;;;9.97;2.87;;;10.30;99.90;;;;;;5076596;28;20439;-40
2022/10/11 06:59:13;;;;;;;9.17;2.80;;;10.30;99.90;;;;;;5077768;28;20513;-39
2022/10/11 07:01:41;;;;;;;4.47;2.07;;;10.40;99.90;;;;;;5064257;28;20492;-40
2022/10/11 07:04:08;;;;;;;6.00;2.40;;;10.40;99.90;;;;;;5061964;28;20836;-43
2022/10/11 07:06:39;;;;;;;5.10;1.90;;;10.50;99.90;;;;;;5061865;28;20470;-39
2022/10/11 07:09:07;;;;;;;2.30;2.07;;;10.60;99.90;;;;;;5062907;28;20479;-40
2022/10/11 07:11:34;;;;;;;4.27;1.93;;;10.60;99.90;;;;;;5062087;28;20893;-39
2022/10/11 07:14:06;;;;;;;3.23;2.23;;;10.70;99.90;;;;;;5060905;28;20427;-40
2022/10/11 07:16:33;;;;;;;4.47;2.60;;;10.70;99.90;;;;;;5062109;28;20456;-40
2022/10/11 07:19:02;;;;;;;3.53;1.93;;;10.80;99.90;;;;;;5061766;28;20463;-43
2022/10/11 07:21:29;;;;;;;2.70;1.93;;;10.80;99.90;;;;;;5062400;28;20451;-41
2022/10/11 07:23:58;;;;;;;8.83;3.27;;;10.90;99.90;;;;;;5061417;28;20538;-40
2022/10/11 07:26:25;;;;;;;11.07;2.73;;;10.90;99.90;;;;;;5066014;28;20431;-39
2022/10/11 07:28:52;;;;;;;7.83;2.93;;;10.90;99.90;;;;;;5066459;28;20989;-43
2022/10/11 07:31:21;;;;;;;8.83;2.57;;;11.00;99.90;;;;;;5066018;28;20473;-40
2022/10/11 07:33:47;;;;;;;3.87;2.40;;;11.10;99.90;;;;;;5065335;28;20442;-41
2022/10/11 07:36:16;;;;;;;13.50;2.43;;;11.10;99.90;;;;;;5064560;28;20467;-41
2022/10/11 07:38:46;;;;;;;8.00;3.53;;;11.20;99.90;;;;;;5065185;28;20510;-40
2022/10/11 07:41:14;;;;;;;6.40;3.30;;;11.30;99.90;;;;;;5065239;28;20447;-38
2022/10/11 07:43:42;;;;;;;12.23;2.83;;;11.40;99.90;;;;;;5064709;28;20481;-42
2022/10/11 07:46:10;;;;;;;7.73;2.50;;;11.50;99.90;;;;;;5063802;28;20470;-43
2022/10/11 07:48:37;;;;;;;3.73;2.40;;;11.60;99.90;;;;;;5063350;28;20951;-40
2022/10/11 07:51:08;;;;;;;10.23;2.93;;;11.60;99.90;;;;;;5063402;28;20461;-43
2022/10/11 07:53:39;;;;;;;9.60;2.57;;;11.70;99.90;;;;;;5063175;28;20485;-40
2022/10/11 07:56:07;;;;;;;3.67;1.87;;;11.80;99.90;;;;;;5064291;28;20878;-41
2022/10/11 07:58:35;;;;;;;18.00;2.50;;;11.90;99.90;;;;;;5063677;28;20919;-42
2022/10/11 08:01:02;;;;;;;4.40;1.87;;;11.90;99.90;;;;;;5063503;28;20517;-41
2022/10/11 08:03:29;;;;;;;4.60;2.70;;;11.90;99.90;;;;;;5063236;28;20439;-38
2022/10/11 08:06:00;;;;;;;7.43;2.17;;;11.90;99.90;;;;;;5063312;28;20481;-41
2022/10/11 08:08:27;;;;;;;7.30;2.60;;;12.00;99.90;;;;;;5063286;28;20431;-40
2022/10/11 08:10:54;;;;;;;6.57;2.77;;;12.10;99.90;;;;;;5063119;28;20466;-41
2022/10/11 08:13:21;;;;;;;8.47;2.77;;;12.10;99.90;;;;;;5062771;28;20424;-43
2022/10/11 08:15:51;;;;;;;9.40;3.70;;;12.20;99.90;;;;;;5062961;28;20442;-42
2022/10/11 08:18:18;;;;;;;4.20;2.43;;;12.20;99.90;;;;;;5062787;28;20585;-41
2022/10/11 08:20:45;;;;;;;3.27;1.90;;;12.30;99.90;;;;;;5062278;28;20530;-41
2022/10/11 08:23:12;;;;;;;4.70;2.77;;;12.40;99.90;;;;;;5062212;28;20439;-43
2022/10/11 08:25:41;;;;;;;8.17;2.07;;;12.40;99.90;;;;;;5062073;28;20443;-42
2022/10/11 08:28:08;;;;;;;3.77;1.33;;;12.50;99.90;;;;;;5061725;28;20561;-42
2022/10/11 08:30:36;;;;;;;3.20;1.80;;;12.70;99.90;;;;;;5061997;28;20501;-42
2022/10/11 08:33:04;;;;;;;7.10;2.07;;;12.70;99.90;;;;;;5061740;28;20477;-43
2022/10/11 08:35:30;;;;;;;9.23;2.10;;;12.70;99.90;;;;;;5061223;28;20459;-41
2022/10/11 08:37:57;;;;;;;5.40;1.73;;;12.80;99.90;;;;;;5060827;28;20451;-42
2022/10/11 08:40:24;;;;;;;9.10;2.20;;;12.80;99.90;;;;;;5061708;28;20432;-41
2022/10/11 08:42:59;;;;;;;12.53;2.60;;;12.90;99.90;;;;;;5061805;28;20451;-42
2022/10/11 08:45:32;;;;;;;6.00;2.50;;;13.10;99.90;;;;;;5062210;28;20451;-40
2022/10/11 08:48:08;;;;;;;6.10;2.40;;;13.20;99.90;;;;;;5061528;28;20740;-42
2022/10/11 08:50:35;;;;;;;8.40;1.77;;;13.30;99.90;;;;;;5061489;28;20969;-40
2022/10/11 08:53:13;;;;;;;2.57;1.20;;;13.40;99.90;;;;;;5061482;28;20517;-39
2022/10/11 08:55:44;;;;;;;8.73;2.20;;;13.40;99.90;;;;;;5061794;28;20800;-44
2022/10/11 08:58:16;;;;;;;5.43;2.00;;;13.60;99.90;;;;;;5061700;28;20761;-40
2022/10/11 09:00:48;;;;;;;17.40;2.20;;;13.90;99.90;;;;;;5060590;28;20463;-41
2022/10/11 09:03:26;;;;;;;4.43;1.80;;;14.50;99.90;;;;;;5059920;28;20462;-42
2022/10/11 09:06:06;;;;;;;3.90;2.03;;;15.00;99.90;;;;;;5059953;28;20420;-43
2022/10/11 09:08:52;;;;;;;9.30;2.00;;;15.20;99.90;;;;;;5059805;28;20515;-41
2022/10/11 09:11:33;;;;;;;4.20;1.20;;;15.30;99.90;;;;;;5059965;28;20431;-39
2022/10/11 09:14:17;;;;;;;16.67;2.33;;;15.10;99.90;;;;;;5060053;28;20438;-43
2022/10/11 09:17:00;;;;;;;8.13;2.10;;;15.10;99.90;;;;;;5059941;28;20629;-41
2022/10/11 09:20:03;;;;;;;6.53;1.67;;;15.10;99.90;;;;;;5060625;28;20499;-41
2022/10/11 09:22:42;;;;;;;7.00;2.43;;;15.30;99.90;;;;;;5060681;28;20538;-43
2022/10/11 09:25:23;;;;;;;5.77;1.80;;;16.20;99.90;;;;;;5059656;28;20869;-41
2022/10/11 09:27:56;;;;;;;3.60;1.60;;;16.70;99.90;;;;;;5059478;28;20503;-43
2022/10/11 09:30:23;;;;;;;12.10;1.70;;;16.90;99.90;;;;;;5059169;28;20467;-42
2022/10/11 09:32:59;;;;;;;5.23;1.83;;;17.00;99.90;;;;;;5059772;28;20443;-44
2022/10/11 09:35:32;;;;;;;4.37;1.70;;;17.50;99.90;;;;;;5058913;28;20481;-42
2022/10/11 09:38:04;;;;;;;3.90;1.50;;;18.60;99.90;;;;;;5058754;28;20885;-40
2022/10/11 09:40:45;;;;;;;5.73;1.80;;;19.60;99.90;;;;;;5058662;28;20546;-41
2022/10/11 09:43:12;;;;;;;5.63;1.93;;;20.40;99.90;;;;;;5058422;28;20428;-39
2022/10/11 09:45:43;;;;;;;6.70;1.50;;;21.20;99.90;;;;;;5058158;28;20518;-40
2022/10/11 09:48:15;;;;;;;4.40;1.70;;;22.00;99.90;;;;;;5057283;28;20805;-41
2022/10/11 09:50:46;;;;;;;1.40;1.10;;;22.50;98.10;;;;;;5057788;28;20548;-40
2022/10/11 09:53:13;;;;;;;6.67;2.03;;;23.00;95.20;;;;;;5057587;28;20829;-42
2022/10/11 09:55:48;;;;;;;6.23;1.63;;;23.40;92.80;;;;;;5057482;28;20554;-44
2022/10/11 09:58:27;;;;;;;9.70;1.83;;;23.60;91.60;;;;;;5057087;28;20878;-38
2022/10/11 10:00:59;;;;;;;7.27;1.93;;;23.70;89.20;;;;;;5056978;28;20435;-41
2022/10/11 10:03:29;;;;;;;5.10;1.70;;;23.90;88.40;;;;;;5057076;28;20526;-43
2022/10/11 10:06:07;;;;;;;1.90;1.63;;;24.10;86.80;;;;;;5057141;28;20507;-46
2022/10/11 10:08:35;;;;;;;7.03;1.80;;;24.40;83.60;;;;;;5056964;28;20923;-43
2022/10/11 10:11:04;;;;;;;5.23;1.10;;;24.60;80.30;;;;;;5056921;28;20483;-40
2022/10/11 10:13:50;;;;;;;3.23;1.67;;;25.00;76.40;;;;;;5056489;28;20481;-42
2022/10/11 10:16:25;;;;;;;5.50;1.50;;;25.10;75.80;;;;;;5056212;28;20814;-40
2022/10/11 10:18:56;;;;;;;2.37;1.27;;;25.20;74.20;;;;;;5056537;28;20558;-39
2022/10/11 10:21:29;;;;;;;5.63;2.00;;;25.10;70.60;;;;;;5056475;28;20489;-40
2022/10/11 10:23:58;;;;;;;4.47;1.80;;;25.00;70.30;;;;;;5056823;28;20905;-40
2022/10/11 10:26:27;;;;;;;4.80;1.47;;;24.80;69.70;;;;;;5056646;28;20443;-42
2022/10/11 10:28:57;;;;;;;5.90;2.10;;;24.20;70.00;;;;;;5056055;28;20455;-42
2022/10/11 10:31:29;;;;;;;6.27;1.80;;;23.90;70.50;;;;;;5056703;28;20490;-42
2022/10/11 10:33:58;;;;;;;8.80;1.70;;;24.00;71.30;;;;;;5056315;28;20466;-41
2022/10/11 10:36:33;;;;;;;4.73;1.57;;;24.10;69.30;;;;;;5056813;28;20475;-39
2022/10/11 10:39:05;;;;;;;5.70;1.40;;;23.90;70.50;;;;;;5056244;28;20431;-43
2022/10/11 10:41:34;;;;;;;1.97;1.20;;;23.50;70.90;;;;;;5056215;28;20718;-41
2022/10/11 10:44:02;;;;;;;3.83;1.40;;;23.60;71.90;;;;;;5056282;28;20438;-42
2022/10/11 10:46:55;;;;;;;5.50;1.30;;;23.30;70.90;;;;;;5056072;28;20972;-44
2022/10/11 10:49:25;;;;;;;6.43;1.60;;;22.90;74.00;;;;;;5056108;28;20836;-40
2022/10/11 10:52:15;;;;;;;5.53;1.90;;;22.80;72.90;;;;;;5055852;28;20462;-43
2022/10/11 10:54:53;;;;;;;5.37;1.50;;;22.10;72.60;;;;;;5056222;28;20447;-40
2022/10/11 10:57:26;;;;;;;7.10;1.50;;;21.40;74.80;;;;;;5056091;28;20478;-41
2022/10/11 11:00:10;;;;;;;5.37;1.80;;;20.60;76.50;;;;;;5055673;28;20466;-39
2022/10/11 11:02:47;;;;;;;4.73;1.50;;;19.80;79.00;;;;;;5056775;28;20431;-39
2022/10/11 11:05:25;;;;;;;3.80;2.07;;;19.30;82.90;;;;;;5057308;28;20432;-41
2022/10/11 11:08:06;;;;;;;3.23;1.30;;;19.00;84.90;;;;;;5057050;28;20811;-39
2022/10/11 11:10:39;;;;;;;8.03;1.87;;;18.80;86.90;;;;;;5056895;28;20455;-40
2022/10/11 11:13:25;;;;;;;3.03;1.40;;;18.70;90.10;;;;;;5057139;28;20431;-44
2022/10/11 11:15:59;;;;;;;9.20;1.40;;;18.70;91.70;;;;;;5056953;28;20529;-41
2022/10/11 11:18:31;;;;;;;6.33;1.37;;;18.60;91.00;;;;;;5057807;28;20427;-39
2022/10/11 11:21:33;;;;;;;9.00;1.30;;;18.20;91.10;;;;;;5057740;28;20546;-40
2022/10/11 11:24:13;;;;;;;2.00;1.20;;;18.00;92.70;;;;;;5058051;28;20498;-46
2022/10/11 11:26:47;;;;;;;4.70;1.30;;;17.90;93.00;;;;;;5056199;28;20450;-47
2022/10/11 11:29:26;;;;;;;5.90;1.40;;;17.80;95.20;;;;;;5056793;28;20861;-45
2022/10/11 11:32:08;;;;;;;5.43;1.30;;;17.80;95.70;;;;;;5056156;28;20487;-48
2022/10/11 11:34:40;;;;;;;1.87;1.10;;;17.80;96.60;;;;;;5055787;28;20432;-45
2022/10/11 11:37:19;;;;;;;6.83;1.40;;;17.70;97.60;;;;;;5055552;28;20561;-45
2022/10/11 11:39:50;;;;;;;7.87;1.43;;;17.70;97.30;;;;;;5055618;28;20428;-46
2022/10/11 11:42:22;;;;;;;2.00;1.50;;;17.80;96.80;;;;;;5056180;28;20955;-50
2022/10/11 11:44:50;;;;;;;3.40;1.20;;;17.70;97.50;;;;;;5056405;28;20446;-47
2022/10/11 11:47:24;;;;;;;6.60;1.00;;;17.60;98.10;;;;;;5056418;28;20454;-44
2022/10/11 11:49:57;;;;;;;4.83;1.27;;;17.60;98.60;;;;;;5055573;28;20454;-45
2022/10/11 11:52:29;;;;;;;4.27;1.30;;;17.50;99.00;;;;;;5056236;28;20423;-46
2022/10/11 11:55:05;;;;;;;6.37;1.83;;;17.50;98.70;;;;;;5055563;28;20424;-48
2022/10/11 11:57:49;;;;;;;3.33;1.20;;;17.60;98.90;;;;;;5055574;28;20415;-48
2022/10/11 12:00:19;;;;;;;2.80;1.80;;;17.70;98.80;;;;;;5055674;28;20450;-46
2022/10/11 12:02:52;;;;;;;2.10;1.20;;;17.80;99.00;;;;;;5055565;28;20451;-47
2022/10/11 12:05:21;;;;;;;4.93;1.33;;;17.80;99.00;;;;;;5055265;28;20467;-48
2022/10/11 12:07:56;;;;;;;3.90;1.57;;;17.90;98.80;;;;;;5055585;28;20447;-50
2022/10/11 12:10:32;;;;;;;3.17;1.27;;;18.00;99.20;;;;;;5056012;28;20491;-47
2022/10/11 12:13:25;;;;;;;2.90;1.43;;;18.20;98.00;;;;;;5059611;28;20526;-44
2022/10/11 12:15:59;;;;;;;4.30;1.40;;;18.20;98.60;;;;;;5058786;28;20915;-48
2022/10/11 12:18:27;;;;;;;8.10;1.57;;;18.20;95.60;;;;;;5059273;28;20434;-48
2022/10/11 12:21:04;;;;;;;1.63;1.13;;;18.00;95.40;;;;;;5059764;28;20463;-46
2022/10/11 12:23:48;;;;;;;3.40;1.07;;;17.90;95.00;;;;;;5059450;28;20442;-44
2022/10/11 12:26:35;;;;;;;12.13;1.77;;;18.00;95.60;;;;;;5059326;28;20432;-43
2022/10/11 12:29:06;;;;;;;7.40;1.40;;;17.90;95.10;;;;;;5059248;28;20509;-43
2022/10/11 12:31:35;;;;;;;3.43;1.60;;;17.70;94.70;;;;;;5059435;28;20793;-42
2022/10/11 12:34:31;;;;;;;5.50;1.30;;;17.40;95.70;;;;;;5059622;28;20454;-47
2022/10/11 12:36:58;;;;;;;7.43;1.27;;;17.30;96.80;;;;;;5058851;28;20462;-41
2022/10/11 12:39:50;;;;;;;5.80;1.43;;;17.20;97.60;;;;;;5059011;28;20469;-49
2022/10/11 12:42:25;;;;;;;3.90;1.60;;;17.00;98.30;;;;;;5058754;28;20424;-46
2022/10/11 12:45:33;;;;;;;2.10;1.20;;;16.90;99.30;;;;;;5058243;28;20463;-46
2022/10/11 12:48:22;;;;;;;8.60;1.53;;;16.90;97.60;;;;;;5059210;28;20427;-48
2022/10/11 12:51:00;;;;;;;2.90;1.40;;;16.70;97.00;;;;;;5058730;28;20464;-44
2022/10/11 12:53:50;;;;;;;1.30;1.00;;;16.50;98.10;;;;;;5059182;28;20458;-46
2022/10/11 12:56:26;;;;;;;6.27;1.50;;;16.30;99.10;;;;;;5059437;28;20526;-45
2022/10/11 12:59:02;;;;;;;3.87;1.50;;;16.20;99.90;;;;;;5059999;28;20526;-46
2022/10/11 13:01:34;;;;;;;2.80;1.43;;;16.10;99.90;;;;;;5059364;28;20502;-49
2022/10/11 13:04:06;;;;;;;4.90;1.27;;;16.00;99.90;;;;;;5059170;28;20443;-46
2022/10/11 13:06:36;;;;;;;7.23;1.27;;;16.00;99.90;;;;;;5058006;28;20475;-46
2022/10/11 13:09:13;;;;;;;6.30;1.23;;;16.10;99.60;;;;;;5058464;28;20445;-49